sensor_id;sensor_type;location;lat;lon;timestamp;temperature;humidity
67157;SHT31;54086;50.126;8.710;2023-02-01T00:01:38;5.63;92.22
67157;SHT31;54086;50.126;8.710;2023-02-01T00:04:03;5.69;92.12
67157;SHT31;54086;50.126;8.710;2023-02-01T00:06:29;5.74;91.96
67157;SHT31;54086;50.126;8.710;2023-02-01T00:08:55;5.72;91.92
67157;SHT31;54086;50.126;8.710;2023-02-01T00:11:21;5.79;91.71
67157;SHT31;54086;50.126;8.710;2023-02-01T00:13:47;5.85;91.51
67157;SHT31;54086;50.126;8.710;2023-02-01T00:16:15;5.85;91.38
67157;SHT31;54086;50.126;8.710;2023-02-01T00:18:45;5.83;91.36
67157;SHT31;54086;50.126;8.710;2023-02-01T00:21:11;5.86;91.49
67157;SHT31;54086;50.126;8.710;2023-02-01T00:23:37;5.89;91.33
67157;SHT31;54086;50.126;8.710;2023-02-01T00:26:09;5.89;91.14
67157;SHT31;54086;50.126;8.710;2023-02-01T00:28:35;5.93;90.95
67157;SHT31;54086;50.126;8.710;2023-02-01T00:31:03;5.86;90.81
67157;SHT31;54086;50.126;8.710;2023-02-01T00:33:29;5.89;90.88
67157;SHT31;54086;50.126;8.710;2023-02-01T00:36:04;5.94;90.66
67157;SHT31;54086;50.126;8.710;2023-02-01T00:38:31;5.91;90.74
67157;SHT31;54086;50.126;8.710;2023-02-01T00:41:14;5.96;90.83
67157;SHT31;54086;50.126;8.710;2023-02-01T00:43:40;5.90;90.88
67157;SHT31;54086;50.126;8.710;2023-02-01T00:46:05;5.91;90.85
67157;SHT31;54086;50.126;8.710;2023-02-01T00:48:31;5.90;90.86
67157;SHT31;54086;50.126;8.710;2023-02-01T00:51:00;5.93;90.87
67157;SHT31;54086;50.126;8.710;2023-02-01T00:53:26;5.94;90.80
67157;SHT31;54086;50.126;8.710;2023-02-01T00:55:51;5.97;90.63
67157;SHT31;54086;50.126;8.710;2023-02-01T00:58:17;5.97;90.62
67157;SHT31;54086;50.126;8.710;2023-02-01T01:00:42;5.99;90.79
67157;SHT31;54086;50.126;8.710;2023-02-01T01:03:07;5.93;90.97
67157;SHT31;54086;50.126;8.710;2023-02-01T01:05:46;5.96;90.99
67157;SHT31;54086;50.126;8.710;2023-02-01T01:08:12;5.97;90.98
67157;SHT31;54086;50.126;8.710;2023-02-01T01:10:38;5.99;90.82
67157;SHT31;54086;50.126;8.710;2023-02-01T01:13:04;6.04;90.50
67157;SHT31;54086;50.126;8.710;2023-02-01T01:15:30;6.07;90.47
67157;SHT31;54086;50.126;8.710;2023-02-01T01:17:55;6.14;90.46
67157;SHT31;54086;50.126;8.710;2023-02-01T01:20:20;6.11;90.39
67157;SHT31;54086;50.126;8.710;2023-02-01T01:22:49;6.10;90.37
67157;SHT31;54086;50.126;8.710;2023-02-01T01:25:14;6.10;90.21
67157;SHT31;54086;50.126;8.710;2023-02-01T01:27:40;6.14;90.24
67157;SHT31;54086;50.126;8.710;2023-02-01T01:30:06;6.14;90.41
67157;SHT31;54086;50.126;8.710;2023-02-01T01:32:32;6.14;90.36
67157;SHT31;54086;50.126;8.710;2023-02-01T01:34:57;6.14;90.25
67157;SHT31;54086;50.126;8.710;2023-02-01T01:37:23;6.09;90.43
67157;SHT31;54086;50.126;8.710;2023-02-01T01:39:48;6.07;90.57
67157;SHT31;54086;50.126;8.710;2023-02-01T01:42:14;6.04;90.68
67157;SHT31;54086;50.126;8.710;2023-02-01T01:45:01;5.99;90.82
67157;SHT31;54086;50.126;8.710;2023-02-01T01:47:34;5.99;91.02
67157;SHT31;54086;50.126;8.710;2023-02-01T01:50:02;6.03;91.13
67157;SHT31;54086;50.126;8.710;2023-02-01T01:52:29;6.03;91.08
67157;SHT31;54086;50.126;8.710;2023-02-01T01:54:54;5.96;91.10
67157;SHT31;54086;50.126;8.710;2023-02-01T01:57:26;5.99;91.27
67157;SHT31;54086;50.126;8.710;2023-02-01T02:00:04;5.96;91.34
67157;SHT31;54086;50.126;8.710;2023-02-01T02:02:30;5.91;91.37
67157;SHT31;54086;50.126;8.710;2023-02-01T02:04:56;5.99;91.41
67157;SHT31;54086;50.126;8.710;2023-02-01T02:07:25;5.91;91.34
67157;SHT31;54086;50.126;8.710;2023-02-01T02:09:52;5.86;91.53
67157;SHT31;54086;50.126;8.710;2023-02-01T02:12:17;5.87;91.54
67157;SHT31;54086;50.126;8.710;2023-02-01T02:14:43;5.79;91.68
67157;SHT31;54086;50.126;8.710;2023-02-01T02:20:18;5.77;91.98
67157;SHT31;54086;50.126;8.710;2023-02-01T02:26:26;5.79;92.24
67157;SHT31;54086;50.126;8.710;2023-02-01T02:34:39;5.85;92.48
67157;SHT31;54086;50.126;8.710;2023-02-01T02:40:03;5.91;92.40
67157;SHT31;54086;50.126;8.710;2023-02-01T02:42:50;5.97;92.30
67157;SHT31;54086;50.126;8.710;2023-02-01T02:45:52;6.00;92.25
67157;SHT31;54086;50.126;8.710;2023-02-01T02:48:52;6.01;92.25
67157;SHT31;54086;50.126;8.710;2023-02-01T02:51:28;6.03;92.28
67157;SHT31;54086;50.126;8.710;2023-02-01T02:54:27;6.03;92.25
67157;SHT31;54086;50.126;8.710;2023-02-01T02:57:15;6.03;92.30
67157;SHT31;54086;50.126;8.710;2023-02-01T03:00:03;6.04;92.18
67157;SHT31;54086;50.126;8.710;2023-02-01T03:02:49;5.97;92.32
67157;SHT31;54086;50.126;8.710;2023-02-01T03:05:34;6.01;92.29
67157;SHT31;54086;50.126;8.710;2023-02-01T03:08:15;5.94;92.40
67157;SHT31;54086;50.126;8.710;2023-02-01T03:11:08;5.89;92.61
67157;SHT31;54086;50.126;8.710;2023-02-01T03:18:57;5.87;92.81
67157;SHT31;54086;50.126;8.710;2023-02-01T03:21:27;5.86;92.76
67157;SHT31;54086;50.126;8.710;2023-02-01T03:23:57;5.86;92.78
67157;SHT31;54086;50.126;8.710;2023-02-01T03:26:26;5.87;92.82
67157;SHT31;54086;50.126;8.710;2023-02-01T03:28:57;5.89;92.74
67157;SHT31;54086;50.126;8.710;2023-02-01T03:31:24;5.83;92.59
67157;SHT31;54086;50.126;8.710;2023-02-01T03:33:50;5.86;92.44
67157;SHT31;54086;50.126;8.710;2023-02-01T03:36:18;5.87;92.37
67157;SHT31;54086;50.126;8.710;2023-02-01T03:38:53;5.91;92.12
67157;SHT31;54086;50.126;8.710;2023-02-01T03:41:24;5.90;92.12
67157;SHT31;54086;50.126;8.710;2023-02-01T03:44:13;5.93;92.14
67157;SHT31;54086;50.126;8.710;2023-02-01T03:46:45;5.89;92.09
67157;SHT31;54086;50.126;8.710;2023-02-01T03:49:17;5.86;92.25
67157;SHT31;54086;50.126;8.710;2023-02-01T03:51:43;5.87;92.18
67157;SHT31;54086;50.126;8.710;2023-02-01T03:54:12;5.94;92.22
67157;SHT31;54086;50.126;8.710;2023-02-01T03:56:41;5.89;92.15
67157;SHT31;54086;50.126;8.710;2023-02-01T03:59:09;5.90;92.32
67157;SHT31;54086;50.126;8.710;2023-02-01T04:01:35;5.91;92.18
67157;SHT31;54086;50.126;8.710;2023-02-01T04:04:00;5.87;91.91
67157;SHT31;54086;50.126;8.710;2023-02-01T04:06:26;5.81;92.13
67157;SHT31;54086;50.126;8.710;2023-02-01T04:08:51;5.86;92.14
67157;SHT31;54086;50.126;8.710;2023-02-01T04:11:17;5.87;92.11
67157;SHT31;54086;50.126;8.710;2023-02-01T04:13:43;5.87;92.11
67157;SHT31;54086;50.126;8.710;2023-02-01T04:16:09;5.91;92.17
67157;SHT31;54086;50.126;8.710;2023-02-01T04:18:34;5.89;92.19
67157;SHT31;54086;50.126;8.710;2023-02-01T04:21:00;5.97;92.18
67157;SHT31;54086;50.126;8.710;2023-02-01T04:23:27;5.96;92.11
67157;SHT31;54086;50.126;8.710;2023-02-01T04:25:52;5.96;92.05
67157;SHT31;54086;50.126;8.710;2023-02-01T04:28:18;5.96;92.20
67157;SHT31;54086;50.126;8.710;2023-02-01T04:30:44;5.94;92.26
67157;SHT31;54086;50.126;8.710;2023-02-01T04:33:10;5.96;92.19
67157;SHT31;54086;50.126;8.710;2023-02-01T04:35:39;5.97;92.14
67157;SHT31;54086;50.126;8.710;2023-02-01T04:38:04;5.97;92.08
67157;SHT31;54086;50.126;8.710;2023-02-01T04:40:30;6.03;92.24
67157;SHT31;54086;50.126;8.710;2023-02-01T04:42:55;6.03;92.08
67157;SHT31;54086;50.126;8.710;2023-02-01T04:45:20;6.06;91.95
67157;SHT31;54086;50.126;8.710;2023-02-01T04:47:45;6.06;91.84
67157;SHT31;54086;50.126;8.710;2023-02-01T04:50:13;6.06;91.81
67157;SHT31;54086;50.126;8.710;2023-02-01T04:52:38;6.06;91.84
67157;SHT31;54086;50.126;8.710;2023-02-01T04:55:04;6.04;91.82
67157;SHT31;54086;50.126;8.710;2023-02-01T04:57:29;6.13;91.87
67157;SHT31;54086;50.126;8.710;2023-02-01T04:59:54;6.13;91.81
67157;SHT31;54086;50.126;8.710;2023-02-01T05:02:20;6.11;91.89
67157;SHT31;54086;50.126;8.710;2023-02-01T05:04:45;6.14;91.82
67157;SHT31;54086;50.126;8.710;2023-02-01T05:07:11;6.13;91.73
67157;SHT31;54086;50.126;8.710;2023-02-01T05:09:36;6.06;91.91
67157;SHT31;54086;50.126;8.710;2023-02-01T05:12:02;6.01;92.04
67157;SHT31;54086;50.126;8.710;2023-02-01T05:14:46;6.01;92.12
67157;SHT31;54086;50.126;8.710;2023-02-01T05:17:12;6.04;92.12
67157;SHT31;54086;50.126;8.710;2023-02-01T05:19:38;5.91;92.21
67157;SHT31;54086;50.126;8.710;2023-02-01T05:22:03;5.87;92.27
67157;SHT31;54086;50.126;8.710;2023-02-01T05:24:28;5.86;92.37
67157;SHT31;54086;50.126;8.710;2023-02-01T05:26:54;5.86;92.39
67157;SHT31;54086;50.126;8.710;2023-02-01T05:29:19;5.81;92.55
67157;SHT31;54086;50.126;8.710;2023-02-01T05:31:46;5.86;92.37
67157;SHT31;54086;50.126;8.710;2023-02-01T05:34:11;5.85;92.17
67157;SHT31;54086;50.126;8.710;2023-02-01T05:36:37;5.86;92.01
67157;SHT31;54086;50.126;8.710;2023-02-01T05:39:02;5.89;91.92
67157;SHT31;54086;50.126;8.710;2023-02-01T05:41:28;5.91;91.72
67157;SHT31;54086;50.126;8.710;2023-02-01T05:43:53;5.94;91.76
67157;SHT31;54086;50.126;8.710;2023-02-01T05:46:19;6.00;91.66
67157;SHT31;54086;50.126;8.710;2023-02-01T05:48:44;6.01;91.44
67157;SHT31;54086;50.126;8.710;2023-02-01T05:51:11;5.99;91.37
67157;SHT31;54086;50.126;8.710;2023-02-01T05:53:36;5.99;91.34
67157;SHT31;54086;50.126;8.710;2023-02-01T05:56:02;6.07;91.22
67157;SHT31;54086;50.126;8.710;2023-02-01T05:58:28;6.06;90.96
67157;SHT31;54086;50.126;8.710;2023-02-01T06:00:53;5.97;91.03
67157;SHT31;54086;50.126;8.710;2023-02-01T06:03:19;5.91;91.13
67157;SHT31;54086;50.126;8.710;2023-02-01T06:05:44;5.89;91.22
67157;SHT31;54086;50.126;8.710;2023-02-01T06:08:10;5.87;91.14
67157;SHT31;54086;50.126;8.710;2023-02-01T06:10:35;5.85;90.99
67157;SHT31;54086;50.126;8.710;2023-02-01T06:13:01;5.83;90.80
67157;SHT31;54086;50.126;8.710;2023-02-01T06:15:28;5.85;90.27
67157;SHT31;54086;50.126;8.710;2023-02-01T06:17:53;5.86;90.09
67157;SHT31;54086;50.126;8.710;2023-02-01T06:20:20;5.90;90.11
67157;SHT31;54086;50.126;8.710;2023-02-01T06:22:45;5.97;89.98
67157;SHT31;54086;50.126;8.710;2023-02-01T06:25:10;6.03;89.96
67157;SHT31;54086;50.126;8.710;2023-02-01T06:27:36;6.00;89.79
67157;SHT31;54086;50.126;8.710;2023-02-01T06:30:04;6.01;89.77
67157;SHT31;54086;50.126;8.710;2023-02-01T06:32:29;6.00;89.88
67157;SHT31;54086;50.126;8.710;2023-02-01T06:34:55;5.96;89.98
67157;SHT31;54086;50.126;8.710;2023-02-01T06:37:22;5.94;90.09
67157;SHT31;54086;50.126;8.710;2023-02-01T06:39:48;5.85;90.23
67157;SHT31;54086;50.126;8.710;2023-02-01T06:42:14;5.76;90.58
67157;SHT31;54086;50.126;8.710;2023-02-01T06:44:39;5.76;90.55
67157;SHT31;54086;50.126;8.710;2023-02-01T06:47:05;5.65;90.69
67157;SHT31;54086;50.126;8.710;2023-02-01T06:49:30;5.65;90.79
67157;SHT31;54086;50.126;8.710;2023-02-01T06:51:56;5.63;90.72
67157;SHT31;54086;50.126;8.710;2023-02-01T06:54:21;5.53;90.85
67157;SHT31;54086;50.126;8.710;2023-02-01T06:56:47;5.62;90.84
67157;SHT31;54086;50.126;8.710;2023-02-01T06:59:12;5.62;90.53
67157;SHT31;54086;50.126;8.710;2023-02-01T07:01:37;5.60;89.99
67157;SHT31;54086;50.126;8.710;2023-02-01T07:04:03;5.59;89.94
67157;SHT31;54086;50.126;8.710;2023-02-01T07:06:29;5.58;89.77
67157;SHT31;54086;50.126;8.710;2023-02-01T07:08:54;5.62;89.24
67157;SHT31;54086;50.126;8.710;2023-02-01T07:11:21;5.63;89.20
67157;SHT31;54086;50.126;8.710;2023-02-01T07:13:47;5.67;88.74
67157;SHT31;54086;50.126;8.710;2023-02-01T07:16:15;5.74;88.29
67157;SHT31;54086;50.126;8.710;2023-02-01T07:18:41;5.73;88.44
67157;SHT31;54086;50.126;8.710;2023-02-01T07:21:06;5.74;87.87
67157;SHT31;54086;50.126;8.710;2023-02-01T07:23:32;5.79;87.24
67157;SHT31;54086;50.126;8.710;2023-02-01T07:26:00;5.85;87.38
67157;SHT31;54086;50.126;8.710;2023-02-01T07:28:28;5.91;87.08
67157;SHT31;54086;50.126;8.710;2023-02-01T07:30:54;5.91;86.57
67157;SHT31;54086;50.126;8.710;2023-02-01T07:33:21;5.97;86.30
67157;SHT31;54086;50.126;8.710;2023-02-01T07:35:48;6.04;85.82
67157;SHT31;54086;50.126;8.710;2023-02-01T07:38:14;6.06;86.04
67157;SHT31;54086;50.126;8.710;2023-02-01T07:40:40;6.10;85.50
67157;SHT31;54086;50.126;8.710;2023-02-01T07:43:05;6.13;85.45
67157;SHT31;54086;50.126;8.710;2023-02-01T07:45:36;6.18;85.01
67157;SHT31;54086;50.126;8.710;2023-02-01T07:48:02;6.24;84.73
67157;SHT31;54086;50.126;8.710;2023-02-01T07:50:29;6.35;84.08
67157;SHT31;54086;50.126;8.710;2023-02-01T07:52:54;6.38;83.96
67157;SHT31;54086;50.126;8.710;2023-02-01T07:55:20;6.44;83.18
67157;SHT31;54086;50.126;8.710;2023-02-01T07:57:46;6.48;83.42
67157;SHT31;54086;50.126;8.710;2023-02-01T08:00:12;6.49;83.42
67157;SHT31;54086;50.126;8.710;2023-02-01T08:02:59;6.52;82.42
67157;SHT31;54086;50.126;8.710;2023-02-01T08:05:25;6.51;83.00
67157;SHT31;54086;50.126;8.710;2023-02-01T08:07:50;6.58;82.53
67157;SHT31;54086;50.126;8.710;2023-02-01T08:10:17;6.58;82.33
67157;SHT31;54086;50.126;8.710;2023-02-01T08:12:43;6.58;81.87
67157;SHT31;54086;50.126;8.710;2023-02-01T08:15:13;6.64;82.03
67157;SHT31;54086;50.126;8.710;2023-02-01T08:17:38;6.61;82.22
67157;SHT31;54086;50.126;8.710;2023-02-01T08:20:04;6.59;81.99
67157;SHT31;54086;50.126;8.710;2023-02-01T08:22:33;6.58;82.10
67157;SHT31;54086;50.126;8.710;2023-02-01T08:24:58;6.52;82.39
67157;SHT31;54086;50.126;8.710;2023-02-01T08:27:26;6.56;82.55
67157;SHT31;54086;50.126;8.710;2023-02-01T08:29:52;6.62;82.31
67157;SHT31;54086;50.126;8.710;2023-02-01T08:32:18;6.68;82.14
67157;SHT31;54086;50.126;8.710;2023-02-01T08:34:43;6.73;81.95
67157;SHT31;54086;50.126;8.710;2023-02-01T08:37:09;6.62;82.03
67157;SHT31;54086;50.126;8.710;2023-02-01T08:39:35;6.59;82.38
67157;SHT31;54086;50.126;8.710;2023-02-01T08:42:01;6.55;82.31
67157;SHT31;54086;50.126;8.710;2023-02-01T08:44:45;6.58;82.17
67157;SHT31;54086;50.126;8.710;2023-02-01T08:47:12;6.65;82.57
67157;SHT31;54086;50.126;8.710;2023-02-01T08:49:37;6.64;81.98
67157;SHT31;54086;50.126;8.710;2023-02-01T08:52:03;6.55;81.88
67157;SHT31;54086;50.126;8.710;2023-02-01T08:54:28;6.48;81.85
67157;SHT31;54086;50.126;8.710;2023-02-01T08:56:54;6.49;82.11
67157;SHT31;54086;50.126;8.710;2023-02-01T08:59:20;6.48;81.93
67157;SHT31;54086;50.126;8.710;2023-02-01T09:01:45;6.48;81.96
67157;SHT31;54086;50.126;8.710;2023-02-01T09:04:10;6.49;81.72
67157;SHT31;54086;50.126;8.710;2023-02-01T09:06:36;6.52;81.42
67157;SHT31;54086;50.126;8.710;2023-02-01T09:09:01;6.52;81.09
67157;SHT31;54086;50.126;8.710;2023-02-01T09:11:26;6.56;81.18
67157;SHT31;54086;50.126;8.710;2023-02-01T09:13:52;6.64;81.38
67157;SHT31;54086;50.126;8.710;2023-02-01T09:16:17;6.62;80.68
67157;SHT31;54086;50.126;8.710;2023-02-01T09:18:42;6.55;80.47
67157;SHT31;54086;50.126;8.710;2023-02-01T09:21:08;6.61;80.33
67157;SHT31;54086;50.126;8.710;2023-02-01T09:23:34;6.59;80.28
67157;SHT31;54086;50.126;8.710;2023-02-01T09:26:00;6.65;79.81
67157;SHT31;54086;50.126;8.710;2023-02-01T09:28:26;6.76;79.91
67157;SHT31;54086;50.126;8.710;2023-02-01T09:30:58;6.75;79.96
67157;SHT31;54086;50.126;8.710;2023-02-01T09:33:24;6.78;79.70
67157;SHT31;54086;50.126;8.710;2023-02-01T09:36:03;6.75;79.90
67157;SHT31;54086;50.126;8.710;2023-02-01T09:38:30;6.85;79.64
67157;SHT31;54086;50.126;8.710;2023-02-01T09:40:56;6.88;79.01
67157;SHT31;54086;50.126;8.710;2023-02-01T09:48:30;6.88;78.49
67157;SHT31;54086;50.126;8.710;2023-02-01T09:50:59;6.85;78.72
67157;SHT31;54086;50.126;8.710;2023-02-01T09:53:40;6.96;78.98
67157;SHT31;54086;50.126;8.710;2023-02-01T09:56:13;6.89;78.09
67157;SHT31;54086;50.126;8.710;2023-02-01T09:58:46;6.88;78.23
67157;SHT31;54086;50.126;8.710;2023-02-01T10:01:21;6.88;78.61
67157;SHT31;54086;50.126;8.710;2023-02-01T10:03:51;6.88;78.24
67157;SHT31;54086;50.126;8.710;2023-02-01T10:19:53;7.06;77.41
67157;SHT31;54086;50.126;8.710;2023-02-01T10:25:24;7.01;76.79
67157;SHT31;54086;50.126;8.710;2023-02-01T10:27:51;7.04;76.72
67157;SHT31;54086;50.126;8.710;2023-02-01T10:30:25;7.04;76.91
67157;SHT31;54086;50.126;8.710;2023-02-01T10:33:07;7.04;76.48
67157;SHT31;54086;50.126;8.710;2023-02-01T10:35:38;7.07;75.79
67157;SHT31;54086;50.126;8.710;2023-02-01T10:38:09;7.10;76.16
67157;SHT31;54086;50.126;8.710;2023-02-01T10:40:39;7.14;76.18
67157;SHT31;54086;50.126;8.710;2023-02-01T10:43:04;7.14;76.36
67157;SHT31;54086;50.126;8.710;2023-02-01T10:45:32;7.04;76.21
67157;SHT31;54086;50.126;8.710;2023-02-01T10:47:59;7.00;76.77
67157;SHT31;54086;50.126;8.710;2023-02-01T10:55:35;6.99;76.77
67157;SHT31;54086;50.126;8.710;2023-02-01T10:58:04;7.03;76.86
67157;SHT31;54086;50.126;8.710;2023-02-01T11:00:44;7.03;77.17
67157;SHT31;54086;50.126;8.710;2023-02-01T11:05:57;7.00;77.14
67157;SHT31;54086;50.126;8.710;2023-02-01T11:08:23;7.01;77.19
67157;SHT31;54086;50.126;8.710;2023-02-01T11:10:57;6.97;77.21
67157;SHT31;54086;50.126;8.710;2023-02-01T11:13:29;6.96;77.26
67157;SHT31;54086;50.126;8.710;2023-02-01T11:15:55;6.96;77.41
67157;SHT31;54086;50.126;8.710;2023-02-01T11:18:27;6.92;77.65
67157;SHT31;54086;50.126;8.710;2023-02-01T11:20:53;6.90;77.59
67157;SHT31;54086;50.126;8.710;2023-02-01T11:23:23;6.90;77.31
67157;SHT31;54086;50.126;8.710;2023-02-01T11:25:54;6.97;77.10
67157;SHT31;54086;50.126;8.710;2023-02-01T11:28:26;7.04;77.21
67157;SHT31;54086;50.126;8.710;2023-02-01T11:30:54;7.09;77.37
67157;SHT31;54086;50.126;8.710;2023-02-01T11:33:26;6.99;77.26
67157;SHT31;54086;50.126;8.710;2023-02-01T11:35:56;7.00;77.38
67157;SHT31;54086;50.126;8.710;2023-02-01T11:38:30;6.97;77.58
67157;SHT31;54086;50.126;8.710;2023-02-01T11:41:16;6.96;77.63
67157;SHT31;54086;50.126;8.710;2023-02-01T11:43:59;7.00;77.71
67157;SHT31;54086;50.126;8.710;2023-02-01T11:46:33;6.99;77.68
67157;SHT31;54086;50.126;8.710;2023-02-01T11:49:21;6.99;77.91
67157;SHT31;54086;50.126;8.710;2023-02-01T11:51:55;6.96;77.79
67157;SHT31;54086;50.126;8.710;2023-02-01T12:15:21;7.11;77.75
67157;SHT31;54086;50.126;8.710;2023-02-01T12:20:31;7.07;77.68
67157;SHT31;54086;50.126;8.710;2023-02-01T12:34:26;7.19;77.42
67157;SHT31;54086;50.126;8.710;2023-02-01T12:40:12;7.17;77.94
67157;SHT31;54086;50.126;8.710;2023-02-01T12:45:39;7.21;78.15
67157;SHT31;54086;50.126;8.710;2023-02-01T12:48:26;7.16;78.00
67157;SHT31;54086;50.126;8.710;2023-02-01T12:51:02;7.13;78.25
67157;SHT31;54086;50.126;8.710;2023-02-01T12:53:46;7.19;78.31
67157;SHT31;54086;50.126;8.710;2023-02-01T12:56:19;7.16;77.96
67157;SHT31;54086;50.126;8.710;2023-02-01T12:58:52;7.19;78.06
67157;SHT31;54086;50.126;8.710;2023-02-01T13:01:31;7.13;78.34
67157;SHT31;54086;50.126;8.710;2023-02-01T13:06:33;7.16;78.25
67157;SHT31;54086;50.126;8.710;2023-02-01T13:12:17;7.21;78.06
67157;SHT31;54086;50.126;8.710;2023-02-01T13:14:53;7.23;77.93
67157;SHT31;54086;50.126;8.710;2023-02-01T13:17:25;7.21;77.92
67157;SHT31;54086;50.126;8.710;2023-02-01T13:19:57;7.20;77.60
67157;SHT31;54086;50.126;8.710;2023-02-01T13:24:59;7.24;77.55
67157;SHT31;54086;50.126;8.710;2023-02-01T13:27:29;7.23;77.78
67157;SHT31;54086;50.126;8.710;2023-02-01T13:33:03;7.31;77.42
67157;SHT31;54086;50.126;8.710;2023-02-01T13:41:05;7.43;77.07
67157;SHT31;54086;50.126;8.710;2023-02-01T13:43:34;7.46;76.84
67157;SHT31;54086;50.126;8.710;2023-02-01T13:46:08;7.51;76.79
67157;SHT31;54086;50.126;8.710;2023-02-01T13:48:41;7.47;76.57
67157;SHT31;54086;50.126;8.710;2023-02-01T13:51:12;7.41;76.64
67157;SHT31;54086;50.126;8.710;2023-02-01T13:53:45;7.48;76.87
67157;SHT31;54086;50.126;8.710;2023-02-01T13:56:22;7.54;76.79
67157;SHT31;54086;50.126;8.710;2023-02-01T13:58:49;7.48;76.54
67157;SHT31;54086;50.126;8.710;2023-02-01T14:03:51;7.51;76.71
67157;SHT31;54086;50.126;8.710;2023-02-01T14:19:26;7.48;76.48
67157;SHT31;54086;50.126;8.710;2023-02-01T14:21:58;7.48;76.18
67157;SHT31;54086;50.126;8.710;2023-02-01T14:24:28;7.51;76.31
67157;SHT31;54086;50.126;8.710;2023-02-01T14:26:55;7.58;75.91
67157;SHT31;54086;50.126;8.710;2023-02-01T14:29:35;7.62;75.55
67157;SHT31;54086;50.126;8.710;2023-02-01T14:37:28;7.83;74.77
67157;SHT31;54086;50.126;8.710;2023-02-01T14:40:03;7.91;73.77
67157;SHT31;54086;50.126;8.710;2023-02-01T14:42:44;8.07;73.35
67157;SHT31;54086;50.126;8.710;2023-02-01T14:50:34;8.23;72.16
67157;SHT31;54086;50.126;8.710;2023-02-01T14:59:01;8.25;71.87
67157;SHT31;54086;50.126;8.710;2023-02-01T15:01:34;8.23;71.64
67157;SHT31;54086;50.126;8.710;2023-02-01T15:04:09;8.23;71.89
67157;SHT31;54086;50.126;8.710;2023-02-01T15:07:04;8.28;72.01
67157;SHT31;54086;50.126;8.710;2023-02-01T15:09:38;8.32;71.79
67157;SHT31;54086;50.126;8.710;2023-02-01T15:14:44;8.32;72.12
67157;SHT31;54086;50.126;8.710;2023-02-01T15:17:26;8.30;71.84
67157;SHT31;54086;50.126;8.710;2023-02-01T15:19:57;8.30;71.99
67157;SHT31;54086;50.126;8.710;2023-02-01T15:22:24;8.32;72.20
67157;SHT31;54086;50.126;8.710;2023-02-01T15:24:54;8.28;72.22
67157;SHT31;54086;50.126;8.710;2023-02-01T15:27:20;8.26;72.56
67157;SHT31;54086;50.126;8.710;2023-02-01T15:29:45;8.26;72.46
67157;SHT31;54086;50.126;8.710;2023-02-01T15:34:56;8.19;72.56
67157;SHT31;54086;50.126;8.710;2023-02-01T15:37:21;8.19;72.82
67157;SHT31;54086;50.126;8.710;2023-02-01T15:40:22;8.20;72.87
67157;SHT31;54086;50.126;8.710;2023-02-01T15:42:54;8.20;72.93
67157;SHT31;54086;50.126;8.710;2023-02-01T15:45:24;8.14;72.82
67157;SHT31;54086;50.126;8.710;2023-02-01T15:47:53;8.20;72.87
67157;SHT31;54086;50.126;8.710;2023-02-01T15:50:20;8.16;73.06
67157;SHT31;54086;50.126;8.710;2023-02-01T15:52:48;8.14;73.07
67157;SHT31;54086;50.126;8.710;2023-02-01T15:55:20;8.14;73.30
67157;SHT31;54086;50.126;8.710;2023-02-01T15:57:47;8.14;73.60
67157;SHT31;54086;50.126;8.710;2023-02-01T16:00:28;8.17;73.66
67157;SHT31;54086;50.126;8.710;2023-02-01T16:03:00;8.14;73.73
67157;SHT31;54086;50.126;8.710;2023-02-01T16:07:59;8.10;74.30
67157;SHT31;54086;50.126;8.710;2023-02-01T16:10:29;8.10;74.43
67157;SHT31;54086;50.126;8.710;2023-02-01T16:12:54;8.05;74.67
67157;SHT31;54086;50.126;8.710;2023-02-01T16:15:23;8.03;74.87
67157;SHT31;54086;50.126;8.710;2023-02-01T16:17:49;8.03;75.13
67157;SHT31;54086;50.126;8.710;2023-02-01T16:20:14;7.99;75.29
67157;SHT31;54086;50.126;8.710;2023-02-01T16:22:40;7.99;75.30
67157;SHT31;54086;50.126;8.710;2023-02-01T16:25:06;8.00;75.44
67157;SHT31;54086;50.126;8.710;2023-02-01T16:27:31;7.99;75.46
67157;SHT31;54086;50.126;8.710;2023-02-01T16:29:57;7.93;75.57
67157;SHT31;54086;50.126;8.710;2023-02-01T16:32:22;7.91;75.61
67157;SHT31;54086;50.126;8.710;2023-02-01T16:34:48;7.92;75.69
67157;SHT31;54086;50.126;8.710;2023-02-01T16:37:18;7.96;75.96
67157;SHT31;54086;50.126;8.710;2023-02-01T16:39:44;7.92;75.67
67157;SHT31;54086;50.126;8.710;2023-02-01T16:42:14;7.95;75.86
67157;SHT31;54086;50.126;8.710;2023-02-01T16:44:40;7.95;75.88
67157;SHT31;54086;50.126;8.710;2023-02-01T16:47:16;7.92;76.05
67157;SHT31;54086;50.126;8.710;2023-02-01T16:49:43;7.93;76.24
67157;SHT31;54086;50.126;8.710;2023-02-01T16:52:14;7.92;75.97
67157;SHT31;54086;50.126;8.710;2023-02-01T16:54:40;7.92;76.16
67157;SHT31;54086;50.126;8.710;2023-02-01T16:57:11;7.91;76.09
67157;SHT31;54086;50.126;8.710;2023-02-01T16:59:36;7.93;75.90
67157;SHT31;54086;50.126;8.710;2023-02-01T17:02:01;7.91;75.93
67157;SHT31;54086;50.126;8.710;2023-02-01T17:04:27;7.92;76.04
67157;SHT31;54086;50.126;8.710;2023-02-01T17:06:52;7.88;75.95
67157;SHT31;54086;50.126;8.710;2023-02-01T17:09:18;7.85;76.06
67157;SHT31;54086;50.126;8.710;2023-02-01T17:11:43;7.82;76.22
67157;SHT31;54086;50.126;8.710;2023-02-01T17:14:17;7.79;76.52
67157;SHT31;54086;50.126;8.710;2023-02-01T17:16:45;7.75;76.76
67157;SHT31;54086;50.126;8.710;2023-02-01T17:19:16;7.74;76.76
67157;SHT31;54086;50.126;8.710;2023-02-01T17:21:49;7.74;76.90
67157;SHT31;54086;50.126;8.710;2023-02-01T17:24:19;7.74;77.26
67157;SHT31;54086;50.126;8.710;2023-02-01T17:26:45;7.69;77.19
67157;SHT31;54086;50.126;8.710;2023-02-01T17:29:11;7.68;77.46
67157;SHT31;54086;50.126;8.710;2023-02-01T17:31:39;7.72;77.38
67157;SHT31;54086;50.126;8.710;2023-02-01T17:34:06;7.74;77.41
67157;SHT31;54086;50.126;8.710;2023-02-01T17:36:31;7.71;77.84
67157;SHT31;54086;50.126;8.710;2023-02-01T17:38:57;7.65;77.93
67157;SHT31;54086;50.126;8.710;2023-02-01T17:41:23;7.64;78.23
67157;SHT31;54086;50.126;8.710;2023-02-01T17:43:51;7.58;78.62
67157;SHT31;54086;50.126;8.710;2023-02-01T17:46:17;7.54;78.85
67157;SHT31;54086;50.126;8.710;2023-02-01T17:48:43;7.60;79.35
67157;SHT31;54086;50.126;8.710;2023-02-01T17:51:20;7.52;79.37
67157;SHT31;54086;50.126;8.710;2023-02-01T17:53:46;7.52;79.47
67157;SHT31;54086;50.126;8.710;2023-02-01T17:56:14;7.52;79.77
67157;SHT31;54086;50.126;8.710;2023-02-01T17:58:40;7.54;79.93
67157;SHT31;54086;50.126;8.710;2023-02-01T18:01:05;7.51;80.73
67157;SHT31;54086;50.126;8.710;2023-02-01T18:03:31;7.47;81.03
67157;SHT31;54086;50.126;8.710;2023-02-01T18:06:00;7.40;81.57
67157;SHT31;54086;50.126;8.710;2023-02-01T18:08:28;7.38;81.92
67157;SHT31;54086;50.126;8.710;2023-02-01T18:10:57;7.34;82.71
67157;SHT31;54086;50.126;8.710;2023-02-01T18:13:30;7.32;82.25
67157;SHT31;54086;50.126;8.710;2023-02-01T18:15:56;7.31;82.81
67157;SHT31;54086;50.126;8.710;2023-02-01T18:18:24;7.30;82.68
67157;SHT31;54086;50.126;8.710;2023-02-01T18:20:49;7.35;82.85
67157;SHT31;54086;50.126;8.710;2023-02-01T18:23:19;7.37;83.11
67157;SHT31;54086;50.126;8.710;2023-02-01T18:25:45;7.28;83.52